Time;durP1;ratioP1;P1;durP2;ratioP2;P2;SDS_P1;SDS_P2;PMS_P1;PMS_P2;Temp;Humidity;BMP_temperature;BMP_pressure;BME280_temperature;BME280_humidity;BME280_pressure;Samples;Min_cycle;Max_cycle;Signal;HPM_P1;HPM_P2
2023/12/15 00:00:20;;;;;;;26.75;12.05;;;;;;;;;;5046802;27;99542;-68
2023/12/15 00:02:47;;;;;;;29.08;13.48;;;;;;;;;;5038643;27;99491;-68
2023/12/15 00:05:13;;;;;;;26.50;14.38;;;;;;;;;;5043710;27;98588;-68
2023/12/15 00:07:39;;;;;;;23.05;14.30;;;;;;;;;;5044067;27;99252;-69
2023/12/15 00:10:06;;;;;;;25.65;15.13;;;;;;;;;;5043849;27;99489;-68
2023/12/15 00:12:33;;;;;;;29.92;15.35;;;;;;;;;;5043882;27;98757;-68
2023/12/15 00:14:59;;;;;;;36.47;16.20;;;;;;;;;;5038858;27;99343;-68
2023/12/15 00:17:26;;;;;;;28.80;15.60;;;;;;;;;;5041639;27;100453;-68
2023/12/15 00:19:52;;;;;;;31.70;16.45;;;;;;;;;;5047211;27;99340;-68
2023/12/15 00:22:19;;;;;;;33.63;17.13;;;;;;;;;;5046144;27;99612;-69
2023/12/15 00:24:45;;;;;;;32.70;18.08;;;;;;;;;;5028739;27;97954;-68
2023/12/15 00:27:11;;;;;;;30.55;17.33;;;;;;;;;;5040078;27;99506;-68
2023/12/15 00:29:38;;;;;;;28.67;17.00;;;;;;;;;;5039080;27;100458;-69
2023/12/15 00:32:04;;;;;;;38.70;18.75;;;;;;;;;;5042622;27;99433;-68
2023/12/15 00:34:31;;;;;;;37.85;18.63;;;;;;;;;;5043540;27;100259;-68
2023/12/15 00:36:57;;;;;;;29.98;18.58;;;;;;;;;;5040039;27;99488;-68
2023/12/15 00:39:23;;;;;;;42.00;20.10;;;;;;;;;;5044398;27;99932;-69
2023/12/15 00:41:49;;;;;;;39.65;19.08;;;;;;;;;;5044132;27;99472;-69
2023/12/15 00:44:16;;;;;;;34.53;19.05;;;;;;;;;;5043249;27;98570;-68
2023/12/15 00:46:42;;;;;;;37.22;19.52;;;;;;;;;;5038684;27;99291;-68
2023/12/15 00:49:09;;;;;;;34.92;19.30;;;;;;;;;;5039050;27;100102;-68
2023/12/15 00:51:35;;;;;;;40.67;19.38;;;;;;;;;;5045098;27;98544;-69
2023/12/15 00:54:01;;;;;;;43.33;20.13;;;;;;;;;;5037832;27;99254;-69
2023/12/15 00:56:28;;;;;;;32.22;18.95;;;;;;;;;;5041806;27;101250;-69
2023/12/15 00:58:54;;;;;;;36.67;19.30;;;;;;;;;;5042052;27;98958;-69
2023/12/15 01:01:20;;;;;;;38.13;19.60;;;;;;;;;;5045729;27;99224;-68
2023/12/15 01:03:47;;;;;;;49.15;21.23;;;;;;;;;;5040665;27;98471;-69
2023/12/15 01:06:13;;;;;;;47.80;22.30;;;;;;;;;;5045290;27;100689;-68
2023/12/15 01:08:39;;;;;;;48.97;20.85;;;;;;;;;;5047311;27;100610;-68
2023/12/15 01:11:06;;;;;;;48.13;21.70;;;;;;;;;;5048645;27;98496;-68
2023/12/15 01:13:33;;;;;;;45.20;21.17;;;;;;;;;;5036035;27;99279;-68
2023/12/15 01:15:59;;;;;;;39.95;21.20;;;;;;;;;;5044309;27;99573;-69
2023/12/15 01:18:25;;;;;;;50.25;22.92;;;;;;;;;;5031940;27;101801;-68
2023/12/15 01:20:52;;;;;;;47.10;22.92;;;;;;;;;;5041791;27;100303;-69
2023/12/15 01:23:18;;;;;;;46.15;22.27;;;;;;;;;;5036748;27;98982;-69
2023/12/15 01:25:45;;;;;;;45.03;21.98;;;;;;;;;;5045085;27;99279;-68
2023/12/15 01:28:11;;;;;;;47.05;23.95;;;;;;;;;;5048291;27;99561;-69
2023/12/15 01:30:38;;;;;;;49.70;23.83;;;;;;;;;;5045000;27;99110;-68
2023/12/15 01:33:04;;;;;;;48.00;23.67;;;;;;;;;;5038001;27;99334;-68
2023/12/15 01:35:30;;;;;;;53.42;24.15;;;;;;;;;;5044342;27;100537;-68
2023/12/15 01:37:57;;;;;;;53.22;24.92;;;;;;;;;;5044222;27;98306;-68
2023/12/15 01:40:23;;;;;;;53.35;23.88;;;;;;;;;;5046579;27;98652;-67
2023/12/15 01:42:50;;;;;;;60.05;25.20;;;;;;;;;;5048415;27;100429;-68
2023/12/15 01:45:16;;;;;;;48.42;23.75;;;;;;;;;;5042773;27;99625;-69
2023/12/15 01:47:43;;;;;;;51.72;24.67;;;;;;;;;;5044502;27;99458;-68
2023/12/15 01:50:10;;;;;;;53.95;23.60;;;;;;;;;;5039792;27;98512;-68
2023/12/15 01:52:36;;;;;;;60.25;24.50;;;;;;;;;;5041280;27;100636;-69
2023/12/15 01:55:02;;;;;;;55.85;23.98;;;;;;;;;;5046378;27;99470;-68
2023/12/15 01:57:29;;;;;;;53.30;25.02;;;;;;;;;;5035387;27;100136;-68
2023/12/15 01:59:55;;;;;;;52.40;25.38;;;;;;;;;;5038194;27;99096;-69
2023/12/15 02:02:21;;;;;;;60.08;25.55;;;;;;;;;;5044834;27;99711;-69
2023/12/15 02:04:48;;;;;;;62.60;25.10;;;;;;;;;;5043848;27;98573;-68
2023/12/15 02:07:14;;;;;;;62.25;26.67;;;;;;;;;;5047358;27;100240;-68
2023/12/15 02:09:40;;;;;;;62.30;26.95;;;;;;;;;;5039754;27;99631;-68
2023/12/15 02:12:07;;;;;;;54.97;26.05;;;;;;;;;;5039900;27;100967;-68
2023/12/15 02:14:33;;;;;;;62.67;27.10;;;;;;;;;;5035943;27;100006;-68
2023/12/15 02:17:00;;;;;;;54.65;25.67;;;;;;;;;;5041361;27;98622;-69
2023/12/15 02:19:26;;;;;;;68.10;26.80;;;;;;;;;;5039255;27;99267;-68
2023/12/15 02:21:53;;;;;;;69.35;27.13;;;;;;;;;;5039380;27;100449;-68
2023/12/15 02:24:19;;;;;;;72.93;27.45;;;;;;;;;;5042141;27;98610;-69
2023/12/15 02:26:45;;;;;;;61.05;27.92;;;;;;;;;;5046126;27;99216;-68
2023/12/15 02:29:12;;;;;;;55.15;25.60;;;;;;;;;;5038597;27;98558;-68
2023/12/15 02:31:38;;;;;;;59.17;26.00;;;;;;;;;;5037547;27;100054;-68
2023/12/15 02:34:04;;;;;;;59.20;28.27;;;;;;;;;;5042818;27;100237;-68
2023/12/15 02:36:31;;;;;;;58.08;25.65;;;;;;;;;;5039653;27;98870;-68
2023/12/15 02:38:58;;;;;;;57.42;26.42;;;;;;;;;;5042066;27;99216;-69
2023/12/15 02:41:24;;;;;;;66.70;26.52;;;;;;;;;;5036726;27;100528;-68
2023/12/15 02:43:51;;;;;;;69.72;27.23;;;;;;;;;;5043906;27;98942;-69
2023/12/15 02:46:17;;;;;;;54.63;26.30;;;;;;;;;;5041935;27;99586;-69
2023/12/15 02:48:44;;;;;;;67.28;25.27;;;;;;;;;;5040901;27;99893;-69
2023/12/15 02:51:10;;;;;;;69.30;27.27;;;;;;;;;;5046715;27;99548;-69
2023/12/15 02:53:37;;;;;;;58.00;26.80;;;;;;;;;;5035851;27;99553;-68
2023/12/15 02:56:04;;;;;;;58.63;26.42;;;;;;;;;;5040881;27;98626;-67
2023/12/15 02:58:30;;;;;;;70.40;27.17;;;;;;;;;;5034782;27;99374;-68
2023/12/15 03:00:57;;;;;;;68.00;27.33;;;;;;;;;;5035259;27;99559;-68
2023/12/15 03:03:23;;;;;;;68.90;26.85;;;;;;;;;;5042298;27;99092;-68
2023/12/15 03:05:49;;;;;;;55.72;26.25;;;;;;;;;;5039522;27;99237;-69
2023/12/15 03:08:16;;;;;;;71.38;27.40;;;;;;;;;;5035959;27;100553;-68
2023/12/15 03:10:42;;;;;;;69.63;28.58;;;;;;;;;;5043913;27;98575;-68
2023/12/15 03:13:08;;;;;;;71.07;27.40;;;;;;;;;;5036721;27;99488;-68
2023/12/15 03:15:35;;;;;;;55.47;25.85;;;;;;;;;;5041615;27;97898;-68
2023/12/15 03:18:01;;;;;;;68.72;27.10;;;;;;;;;;5042279;27;99630;-69
2023/12/15 03:20:28;;;;;;;71.05;28.60;;;;;;;;;;5035730;27;99547;-69
2023/12/15 03:22:59;;;;;;;67.47;28.40;;;;;;;;;;5038798;27;100024;-68
2023/12/15 03:25:25;;;;;;;64.10;26.92;;;;;;;;;;5044717;27;100077;-69
2023/12/15 03:27:52;;;;;;;65.85;27.27;;;;;;;;;;5038385;27;99460;-68
2023/12/15 03:30:18;;;;;;;72.00;27.52;;;;;;;;;;5055223;27;98783;-68
2023/12/15 03:32:44;;;;;;;63.30;28.35;;;;;;;;;;5045336;27;100634;-68
2023/12/15 03:35:11;;;;;;;61.30;28.13;;;;;;;;;;5042030;27;98916;-68
2023/12/15 03:37:37;;;;;;;63.03;27.00;;;;;;;;;;5048893;27;100226;-68
2023/12/15 03:40:04;;;;;;;63.50;28.25;;;;;;;;;;5044817;27;98725;-69
2023/12/15 03:42:30;;;;;;;60.88;29.38;;;;;;;;;;5042858;27;98593;-69
2023/12/15 03:44:57;;;;;;;61.15;28.48;;;;;;;;;;5042806;27;98922;-69
2023/12/15 03:47:23;;;;;;;62.47;29.13;;;;;;;;;;5043351;27;100612;-68
2023/12/15 03:49:49;;;;;;;70.05;28.70;;;;;;;;;;5046574;27;98707;-68
2023/12/15 03:52:16;;;;;;;62.70;28.38;;;;;;;;;;5042025;27;99192;-69
2023/12/15 03:54:42;;;;;;;66.03;28.80;;;;;;;;;;5044347;27;98796;-69
2023/12/15 03:57:08;;;;;;;69.43;29.45;;;;;;;;;;5036137;27;99542;-68
2023/12/15 03:59:38;;;;;;;69.75;28.27;;;;;;;;;;5042261;27;99323;-68
2023/12/15 04:02:05;;;;;;;67.17;27.93;;;;;;;;;;5049105;27;98598;-69
2023/12/15 04:04:34;;;;;;;64.68;29.05;;;;;;;;;;5046249;27;99283;-69
2023/12/15 04:07:00;;;;;;;56.35;27.83;;;;;;;;;;5049292;27;99487;-69
2023/12/15 04:09:27;;;;;;;61.83;28.80;;;;;;;;;;5048142;27;98662;-69
2023/12/15 04:11:53;;;;;;;67.35;29.67;;;;;;;;;;5049235;27;100567;-69
2023/12/15 04:14:19;;;;;;;65.18;28.63;;;;;;;;;;5041539;27;100926;-68
2023/12/15 04:16:46;;;;;;;57.97;28.70;;;;;;;;;;5039340;27;99248;-69
2023/12/15 04:19:12;;;;;;;60.92;28.17;;;;;;;;;;5042688;27;100639;-69
2023/12/15 04:21:39;;;;;;;58.67;27.90;;;;;;;;;;5035201;27;98530;-68
2023/12/15 04:24:06;;;;;;;64.95;27.33;;;;;;;;;;5040317;27;100705;-64
2023/12/15 04:26:33;;;;;;;53.70;26.98;;;;;;;;;;5045576;27;99785;-65
2023/12/15 04:29:00;;;;;;;57.13;26.15;;;;;;;;;;5044342;27;98170;-65
2023/12/15 04:31:26;;;;;;;61.97;26.77;;;;;;;;;;5041269;27;98482;-64
2023/12/15 04:33:52;;;;;;;63.28;26.35;;;;;;;;;;5044766;27;100779;-65
2023/12/15 04:36:19;;;;;;;64.97;27.27;;;;;;;;;;5042296;27;99844;-65
2023/12/15 04:38:45;;;;;;;59.25;27.98;;;;;;;;;;5030624;27;99517;-65
2023/12/15 04:41:19;;;;;;;49.75;25.60;;;;;;;;;;5042744;27;98573;-64
2023/12/15 04:43:45;;;;;;;52.58;25.33;;;;;;;;;;5045261;27;100489;-65
2023/12/15 04:46:12;;;;;;;48.85;24.88;;;;;;;;;;5042372;27;99997;-65
2023/12/15 04:48:38;;;;;;;50.55;24.70;;;;;;;;;;5040187;27;98839;-64
2023/12/15 04:51:05;;;;;;;50.13;24.75;;;;;;;;;;5039714;27;99259;-65
2023/12/15 04:53:31;;;;;;;47.30;22.65;;;;;;;;;;5036123;27;99721;-65
2023/12/15 04:55:57;;;;;;;58.60;23.23;;;;;;;;;;5045949;27;98946;-65
2023/12/15 04:58:24;;;;;;;46.97;21.20;;;;;;;;;;5046782;27;99299;-65
2023/12/15 05:00:50;;;;;;;50.05;23.13;;;;;;;;;;5039644;27;101758;-65
2023/12/15 05:03:17;;;;;;;47.13;22.27;;;;;;;;;;5037117;27;99941;-64
2023/12/15 05:05:46;;;;;;;48.88;22.73;;;;;;;;;;5038334;27;99524;-65
2023/12/15 05:08:13;;;;;;;43.78;22.55;;;;;;;;;;5044151;27;98495;-65
2023/12/15 05:10:39;;;;;;;44.63;23.33;;;;;;;;;;5042316;27;99638;-65
2023/12/15 05:13:06;;;;;;;48.33;22.88;;;;;;;;;;5041386;27;99587;-65
2023/12/15 05:15:32;;;;;;;49.38;23.33;;;;;;;;;;5042236;27;98536;-65
2023/12/15 05:17:59;;;;;;;49.60;23.33;;;;;;;;;;5028135;27;99197;-65
2023/12/15 05:20:25;;;;;;;39.80;22.58;;;;;;;;;;5042287;27;98610;-65
2023/12/15 05:22:52;;;;;;;47.50;22.75;;;;;;;;;;5043792;27;99433;-65
2023/12/15 05:25:18;;;;;;;42.30;24.38;;;;;;;;;;5043174;27;100428;-65
2023/12/15 05:27:45;;;;;;;46.05;22.05;;;;;;;;;;5044183;27;98687;-64
2023/12/15 05:30:11;;;;;;;45.83;21.77;;;;;;;;;;5038580;27;99279;-65
2023/12/15 05:32:38;;;;;;;41.33;20.95;;;;;;;;;;5041596;27;99399;-65
2023/12/15 05:35:05;;;;;;;50.10;20.88;;;;;;;;;;5047025;27;98733;-68
2023/12/15 05:37:31;;;;;;;37.78;19.83;;;;;;;;;;5041920;27;100276;-68
2023/12/15 05:39:58;;;;;;;42.78;21.35;;;;;;;;;;5044456;27;99477;-68
2023/12/15 05:42:25;;;;;;;42.70;20.50;;;;;;;;;;5045265;27;100265;-69
2023/12/15 05:44:51;;;;;;;46.70;20.92;;;;;;;;;;5037248;27;99463;-68
2023/12/15 05:47:18;;;;;;;46.58;18.55;;;;;;;;;;5043178;27;98495;-68
2023/12/15 05:49:44;;;;;;;41.35;20.17;;;;;;;;;;5040323;27;99280;-69
2023/12/15 05:52:11;;;;;;;40.05;18.08;;;;;;;;;;5040364;27;99530;-69
2023/12/15 05:54:37;;;;;;;44.80;19.65;;;;;;;;;;5034599;27;98453;-69
2023/12/15 05:57:04;;;;;;;37.38;18.85;;;;;;;;;;5040987;27;100244;-68
2023/12/15 05:59:30;;;;;;;41.25;19.67;;;;;;;;;;5036442;27;99812;-69
2023/12/15 06:01:56;;;;;;;37.00;18.17;;;;;;;;;;5029038;27;99063;-68
2023/12/15 06:04:23;;;;;;;32.17;18.42;;;;;;;;;;5042407;27;99505;-69
2023/12/15 06:06:50;;;;;;;35.58;17.50;;;;;;;;;;5039817;27;97872;-68
2023/12/15 06:09:17;;;;;;;45.05;17.88;;;;;;;;;;5037360;27;98830;-68
2023/12/15 06:11:43;;;;;;;37.50;17.02;;;;;;;;;;5045148;27;98478;-68
2023/12/15 06:14:10;;;;;;;39.65;18.15;;;;;;;;;;5044086;27;99309;-69
2023/12/15 06:16:36;;;;;;;37.35;18.73;;;;;;;;;;5040608;27;99933;-69
2023/12/15 06:19:02;;;;;;;43.65;16.73;;;;;;;;;;5040228;27;99453;-69
2023/12/15 06:21:29;;;;;;;35.40;17.27;;;;;;;;;;5035858;27;99060;-68
2023/12/15 06:23:55;;;;;;;33.90;16.98;;;;;;;;;;5043734;27;99860;-68
2023/12/15 06:26:23;;;;;;;41.85;16.35;;;;;;;;;;5037360;27;98568;-69
2023/12/15 06:28:50;;;;;;;39.30;16.45;;;;;;;;;;5043119;27;100992;-68
2023/12/15 06:31:16;;;;;;;42.30;17.88;;;;;;;;;;5036202;27;99813;-69
2023/12/15 06:33:43;;;;;;;30.83;16.30;;;;;;;;;;5048939;27;98658;-68
2023/12/15 06:36:10;;;;;;;43.50;17.30;;;;;;;;;;5037561;27;100679;-69
2023/12/15 06:38:36;;;;;;;36.47;16.52;;;;;;;;;;5035893;27;100822;-69
2023/12/15 06:41:03;;;;;;;31.70;16.38;;;;;;;;;;5036038;27;99043;-68
2023/12/15 06:43:30;;;;;;;37.42;15.93;;;;;;;;;;5039202;27;99178;-65
2023/12/15 06:45:56;;;;;;;42.05;17.13;;;;;;;;;;5046336;27;99486;-65
2023/12/15 06:48:23;;;;;;;32.95;17.38;;;;;;;;;;5040653;27;99258;-65
2023/12/15 06:50:50;;;;;;;39.28;18.90;;;;;;;;;;5044114;27;99293;-65
2023/12/15 06:53:17;;;;;;;37.05;18.60;;;;;;;;;;5047076;27;98511;-64
2023/12/15 06:55:44;;;;;;;35.47;17.90;;;;;;;;;;5040553;27;100277;-65
2023/12/15 06:58:10;;;;;;;31.83;16.85;;;;;;;;;;5040960;27;100795;-64
2023/12/15 07:00:37;;;;;;;36.05;16.63;;;;;;;;;;5046333;27;99043;-65
2023/12/15 07:03:04;;;;;;;35.85;15.40;;;;;;;;;;5040542;27;99288;-64
2023/12/15 07:05:30;;;;;;;34.13;15.43;;;;;;;;;;5043654;27;99473;-64
2023/12/15 07:07:56;;;;;;;36.70;14.77;;;;;;;;;;5049041;27;98482;-64
2023/12/15 07:10:23;;;;;;;32.20;14.93;;;;;;;;;;5047883;27;99771;-65
2023/12/15 07:12:49;;;;;;;35.33;14.80;;;;;;;;;;5048523;27;98539;-65
2023/12/15 07:15:16;;;;;;;38.42;15.57;;;;;;;;;;5044775;27;99305;-65
2023/12/15 07:17:42;;;;;;;42.63;16.42;;;;;;;;;;5040439;27;99509;-65
2023/12/15 07:20:09;;;;;;;39.65;15.82;;;;;;;;;;5046650;27;97901;-65
2023/12/15 07:22:35;;;;;;;34.78;15.52;;;;;;;;;;5044791;27;98765;-65
2023/12/15 07:25:02;;;;;;;35.35;15.38;;;;;;;;;;5044231;27;100438;-65
2023/12/15 07:27:28;;;;;;;33.88;14.88;;;;;;;;;;5048773;27;99398;-65
2023/12/15 07:29:54;;;;;;;37.95;15.80;;;;;;;;;;5047320;27;99472;-65
2023/12/15 07:32:21;;;;;;;44.08;15.50;;;;;;;;;;5051385;27;98639;-65
2023/12/15 07:34:47;;;;;;;39.25;15.50;;;;;;;;;;5040410;27;100447;-65
2023/12/15 07:37:14;;;;;;;33.75;15.63;;;;;;;;;;5042388;27;100592;-65
2023/12/15 07:39:40;;;;;;;44.35;15.93;;;;;;;;;;5044558;27;98558;-65
2023/12/15 07:42:06;;;;;;;41.42;17.17;;;;;;;;;;5040990;27;99244;-65
2023/12/15 07:44:32;;;;;;;38.97;17.02;;;;;;;;;;5045189;27;99677;-66
2023/12/15 07:46:59;;;;;;;39.70;15.65;;;;;;;;;;5043363;27;98594;-65
2023/12/15 07:49:25;;;;;;;36.90;16.48;;;;;;;;;;5043847;27;98803;-66
2023/12/15 07:51:52;;;;;;;45.63;15.93;;;;;;;;;;5043430;27;99301;-65
2023/12/15 07:54:18;;;;;;;35.15;15.13;;;;;;;;;;5029525;27;99976;-65
2023/12/15 07:56:44;;;;;;;40.47;15.18;;;;;;;;;;5043022;27;100959;-65
2023/12/15 07:59:11;;;;;;;35.58;15.77;;;;;;;;;;5041336;27;98586;-65
2023/12/15 08:01:38;;;;;;;45.97;16.33;;;;;;;;;;5039696;27;99370;-65
2023/12/15 08:04:05;;;;;;;40.72;15.90;;;;;;;;;;5042244;27;99871;-64
2023/12/15 08:06:34;;;;;;;31.58;15.68;;;;;;;;;;5038473;27;98598;-66
2023/12/15 08:09:01;;;;;;;42.88;15.00;;;;;;;;;;5041709;27;99264;-66
2023/12/15 08:11:27;;;;;;;35.58;15.18;;;;;;;;;;5041596;27;99743;-66
2023/12/15 08:13:53;;;;;;;34.05;14.40;;;;;;;;;;5041687;27;100712;-66
2023/12/15 08:16:20;;;;;;;40.50;15.88;;;;;;;;;;5050957;27;100198;-65
2023/12/15 08:18:46;;;;;;;49.35;16.05;;;;;;;;;;5045440;27;98615;-66
2023/12/15 08:21:12;;;;;;;38.03;15.63;;;;;;;;;;5043129;27;99578;-65
2023/12/15 08:23:39;;;;;;;42.20;14.88;;;;;;;;;;5044532;27;99534;-65
2023/12/15 08:26:06;;;;;;;31.40;13.73;;;;;;;;;;5040854;27;98591;-64
2023/12/15 08:28:32;;;;;;;35.80;13.57;;;;;;;;;;5042502;27;100522;-65
2023/12/15 08:30:59;;;;;;;31.38;14.48;;;;;;;;;;5043233;27;99503;-65
2023/12/15 08:33:27;;;;;;;38.38;14.80;;;;;;;;;;5049345;27;97898;-64
2023/12/15 08:35:54;;;;;;;49.13;15.00;;;;;;;;;;5044388;27;99424;-66
2023/12/15 08:38:20;;;;;;;36.60;14.27;;;;;;;;;;5041713;27;98558;-66
2023/12/15 08:40:47;;;;;;;38.35;14.85;;;;;;;;;;5042034;27;99210;-65
2023/12/15 08:43:13;;;;;;;32.83;14.70;;;;;;;;;;5040564;27;99494;-66
2023/12/15 08:45:40;;;;;;;40.22;14.02;;;;;;;;;;5044025;27;98695;-65
2023/12/15 08:48:06;;;;;;;37.60;14.30;;;;;;;;;;5043402;27;99281;-65
2023/12/15 08:50:33;;;;;;;39.60;13.27;;;;;;;;;;5046417;27;99718;-65
2023/12/15 08:52:59;;;;;;;36.80;13.57;;;;;;;;;;5040864;27;98438;-65
2023/12/15 08:55:25;;;;;;;32.10;12.75;;;;;;;;;;5046085;27;99222;-66
2023/12/15 08:57:52;;;;;;;28.88;12.43;;;;;;;;;;5044389;27;97870;-66
2023/12/15 09:00:18;;;;;;;39.50;11.15;;;;;;;;;;5038881;27;99545;-66
2023/12/15 09:02:45;;;;;;;25.67;11.55;;;;;;;;;;5036469;27;100322;-65
2023/12/15 09:05:11;;;;;;;30.98;11.82;;;;;;;;;;5042565;27;99307;-65
2023/12/15 09:07:59;;;;;;;38.08;10.43;;;;;;;;;;5041601;27;98586;-66
2023/12/15 09:10:26;;;;;;;34.08;10.88;;;;;;;;;;5042459;27;99230;-66
2023/12/15 09:12:53;;;;;;;40.60;11.68;;;;;;;;;;5036110;27;98758;-65
2023/12/15 09:15:19;;;;;;;39.90;12.38;;;;;;;;;;5044492;27;100246;-65
2023/12/15 09:17:46;;;;;;;33.35;12.20;;;;;;;;;;5042654;27;99540;-66
2023/12/15 09:20:12;;;;;;;46.05;12.18;;;;;;;;;;5043950;27;99220;-66
2023/12/15 09:22:42;;;;;;;31.50;11.85;;;;;;;;;;5045809;27;98784;-66
2023/12/15 09:25:08;;;;;;;32.55;10.77;;;;;;;;;;5045412;27;98705;-67
2023/12/15 09:27:35;;;;;;;28.02;10.07;;;;;;;;;;5041289;27;99538;-66
2023/12/15 09:30:02;;;;;;;32.85;10.90;;;;;;;;;;5035020;27;100378;-66
2023/12/15 09:32:28;;;;;;;32.25;10.77;;;;;;;;;;5041617;27;98505;-66
2023/12/15 09:34:54;;;;;;;38.97;11.20;;;;;;;;;;5038277;27;99650;-66
2023/12/15 09:37:22;;;;;;;35.70;10.52;;;;;;;;;;5041797;27;99511;-66
2023/12/15 09:39:48;;;;;;;34.63;11.40;;;;;;;;;;5040379;27;100665;-66
2023/12/15 09:42:15;;;;;;;38.97;12.57;;;;;;;;;;5039473;27;99418;-65
2023/12/15 09:44:41;;;;;;;34.00;11.85;;;;;;;;;;5042751;27;98480;-65
2023/12/15 09:47:26;;;;;;;36.53;11.18;;;;;;;;;;5040476;27;99424;-66
2023/12/15 09:49:54;;;;;;;28.92;10.63;;;;;;;;;;5035905;27;99553;-66
2023/12/15 09:52:21;;;;;;;37.03;12.43;;;;;;;;;;5039364;27;98648;-67
2023/12/15 09:54:49;;;;;;;25.15;11.07;;;;;;;;;;5036629;27;100111;-68
2023/12/15 09:57:15;;;;;;;40.25;10.63;;;;;;;;;;5037200;27;99487;-67
2023/12/15 09:59:42;;;;;;;30.80;10.32;;;;;;;;;;5042995;27;99019;-67
2023/12/15 10:02:09;;;;;;;28.65;10.20;;;;;;;;;;5041886;27;100568;-65
2023/12/15 10:04:35;;;;;;;28.83;10.30;;;;;;;;;;5040346;27;99001;-66
2023/12/15 10:07:02;;;;;;;31.02;12.23;;;;;;;;;;5038780;27;99267;-65
2023/12/15 10:09:28;;;;;;;41.40;13.63;;;;;;;;;;5038769;27;100712;-65
2023/12/15 10:11:55;;;;;;;34.95;11.93;;;;;;;;;;5036706;27;98139;-65
2023/12/15 10:14:22;;;;;;;33.10;11.35;;;;;;;;;;5039125;27;98789;-65
2023/12/15 10:16:48;;;;;;;30.95;10.25;;;;;;;;;;5042900;27;99696;-65
2023/12/15 10:19:16;;;;;;;40.10;9.20;;;;;;;;;;5040162;27;99573;-65
2023/12/15 10:21:43;;;;;;;38.15;9.93;;;;;;;;;;5044214;27;100083;-65
2023/12/15 10:24:20;;;;;;;37.95;8.90;;;;;;;;;;5043163;27;98891;-65
2023/12/15 10:26:47;;;;;;;24.17;8.50;;;;;;;;;;5040620;27;99553;-65
2023/12/15 10:29:14;;;;;;;32.03;9.13;;;;;;;;;;5031261;27;100501;-65
2023/12/15 10:31:41;;;;;;;27.15;8.95;;;;;;;;;;5051760;27;99369;-65
2023/12/15 10:34:08;;;;;;;32.97;8.70;;;;;;;;;;5044271;27;100214;-65
2023/12/15 10:36:35;;;;;;;28.27;8.95;;;;;;;;;;5041771;27;98804;-65
2023/12/15 10:39:03;;;;;;;30.77;8.20;;;;;;;;;;5040215;27;98532;-65
2023/12/15 10:41:32;;;;;;;30.23;8.98;;;;;;;;;;5043245;27;99201;-65
2023/12/15 10:44:00;;;;;;;26.77;8.02;;;;;;;;;;5042533;27;101392;-65
2023/12/15 10:46:27;;;;;;;20.77;7.50;;;;;;;;;;5042415;27;99915;-65
2023/12/15 10:48:54;;;;;;;31.80;8.68;;;;;;;;;;5040350;27;99481;-65
2023/12/15 10:51:20;;;;;;;19.17;8.90;;;;;;;;;;5040211;27;98744;-65
2023/12/15 10:53:48;;;;;;;36.05;8.82;;;;;;;;;;5046437;27;98656;-65
2023/12/15 10:56:15;;;;;;;26.52;7.95;;;;;;;;;;5046268;27;99425;-65
2023/12/15 10:58:42;;;;;;;25.83;7.57;;;;;;;;;;5046851;27;98722;-65
2023/12/15 11:01:10;;;;;;;35.22;8.85;;;;;;;;;;5046542;27;98967;-65
2023/12/15 11:03:39;;;;;;;28.27;8.13;;;;;;;;;;5038798;27;99575;-65
2023/12/15 11:06:06;;;;;;;29.83;8.18;;;;;;;;;;5043180;27;98608;-65
2023/12/15 11:08:32;;;;;;;28.23;6.72;;;;;;;;;;5046792;27;100517;-65
2023/12/15 11:10:59;;;;;;;24.83;7.07;;;;;;;;;;5044307;27;98635;-65
2023/12/15 11:13:47;;;;;;;32.45;7.85;;;;;;;;;;5036645;27;100242;-65
2023/12/15 11:16:16;;;;;;;32.33;7.20;;;;;;;;;;5045005;27;99824;-65
2023/12/15 11:18:42;;;;;;;25.70;5.75;;;;;;;;;;5048501;27;98699;-65
2023/12/15 11:21:10;;;;;;;22.65;6.50;;;;;;;;;;5046887;27;99431;-65
2023/12/15 11:24:00;;;;;;;24.95;5.68;;;;;;;;;;5039751;27;99456;-65
2023/12/15 11:26:30;;;;;;;26.20;5.80;;;;;;;;;;5033150;27;97864;-65
2023/12/15 11:29:07;;;;;;;26.42;5.82;;;;;;;;;;5047271;27;99783;-65
2023/12/15 11:31:34;;;;;;;22.80;6.57;;;;;;;;;;5042580;27;98647;-65
2023/12/15 11:34:03;;;;;;;30.50;6.57;;;;;;;;;;5035709;27;99322;-65
2023/12/15 11:36:31;;;;;;;29.17;7.18;;;;;;;;;;5042067;27;100549;-69
2023/12/15 11:38:58;;;;;;;23.80;6.90;;;;;;;;;;5041053;27;98632;-66
2023/12/15 11:41:24;;;;;;;30.52;5.70;;;;;;;;;;5037044;27;99284;-65
2023/12/15 11:43:51;;;;;;;25.23;6.25;;;;;;;;;;5044622;27;99584;-66
2023/12/15 11:46:21;;;;;;;30.45;6.40;;;;;;;;;;5046410;27;98798;-66
2023/12/15 11:48:47;;;;;;;27.63;5.45;;;;;;;;;;5045683;27;100434;-66
2023/12/15 11:51:14;;;;;;;42.20;5.97;;;;;;;;;;5040909;27;97892;-65
2023/12/15 11:53:42;;;;;;;25.73;5.93;;;;;;;;;;5038779;27;98536;-65
2023/12/15 11:56:09;;;;;;;21.83;5.30;;;;;;;;;;5041783;27;100126;-65
2023/12/15 11:58:36;;;;;;;29.42;6.50;;;;;;;;;;5032377;27;99295;-65
2023/12/15 12:01:02;;;;;;;19.98;4.30;;;;;;;;;;5042080;27;100060;-65
2023/12/15 12:03:31;;;;;;;24.60;6.35;;;;;;;;;;5043093;27;99483;-65
2023/12/15 12:06:05;;;;;;;24.45;5.55;;;;;;;;;;5041109;27;98607;-65
2023/12/15 12:08:35;;;;;;;31.30;5.63;;;;;;;;;;5040948;27;99400;-65
2023/12/15 12:11:04;;;;;;;21.83;5.00;;;;;;;;;;5040467;27;99923;-65
2023/12/15 12:13:35;;;;;;;20.30;5.03;;;;;;;;;;5042443;27;100393;-66
2023/12/15 12:16:02;;;;;;;24.98;5.03;;;;;;;;;;5041287;27;99974;-65
2023/12/15 12:18:29;;;;;;;21.73;5.30;;;;;;;;;;5041247;27;98974;-66
2023/12/15 12:20:56;;;;;;;18.17;4.63;;;;;;;;;;5038337;27;99846;-66
2023/12/15 12:23:24;;;;;;;17.67;4.10;;;;;;;;;;5045642;27;100212;-66
2023/12/15 12:26:01;;;;;;;26.92;4.55;;;;;;;;;;5041656;27;98588;-65
2023/12/15 12:28:38;;;;;;;19.88;4.15;;;;;;;;;;5043159;27;100396;-66
2023/12/15 12:31:05;;;;;;;17.50;4.32;;;;;;;;;;5038257;27;99467;-66
2023/12/15 12:33:32;;;;;;;20.02;3.75;;;;;;;;;;5046940;27;98612;-65
2023/12/15 12:35:59;;;;;;;20.20;4.15;;;;;;;;;;5047103;27;99517;-65
2023/12/15 12:38:25;;;;;;;30.90;5.47;;;;;;;;;;5049339;27;98833;-65
2023/12/15 12:40:52;;;;;;;17.08;3.70;;;;;;;;;;5037410;27;100301;-65
2023/12/15 12:43:18;;;;;;;23.48;4.00;;;;;;;;;;5040558;27;99478;-66
2023/12/15 12:45:45;;;;;;;15.93;4.18;;;;;;;;;;5045107;27;98668;-65
2023/12/15 12:48:11;;;;;;;18.00;3.90;;;;;;;;;;5046104;27;99740;-65
2023/12/15 12:50:38;;;;;;;18.80;3.85;;;;;;;;;;5037371;27;99475;-66
2023/12/15 12:53:04;;;;;;;34.10;3.70;;;;;;;;;;5036892;27;98497;-66
2023/12/15 12:55:30;;;;;;;22.90;3.58;;;;;;;;;;5046042;27;100203;-66
2023/12/15 12:58:00;;;;;;;17.63;3.28;;;;;;;;;;5045093;27;98520;-65
2023/12/15 13:00:26;;;;;;;15.63;3.77;;;;;;;;;;5045850;27;99495;-65
2023/12/15 13:02:53;;;;;;;23.35;4.35;;;;;;;;;;5042101;27;99543;-65
2023/12/15 13:05:19;;;;;;;23.08;3.90;;;;;;;;;;5028154;27;97827;-65
2023/12/15 13:07:46;;;;;;;18.83;3.95;;;;;;;;;;5047074;27;98794;-65
2023/12/15 13:10:15;;;;;;;10.13;3.22;;;;;;;;;;5039816;27;99450;-65
2023/12/15 13:12:51;;;;;;;14.45;3.58;;;;;;;;;;5042852;27;99696;-65
2023/12/15 13:15:18;;;;;;;13.32;3.53;;;;;;;;;;5039494;27;99904;-65
2023/12/15 13:17:44;;;;;;;19.98;3.50;;;;;;;;;;5046480;27;99690;-65
2023/12/15 13:20:11;;;;;;;12.80;3.33;;;;;;;;;;5038469;27;100389;-65
2023/12/15 13:22:38;;;;;;;15.85;3.22;;;;;;;;;;5041127;27;100413;-65
2023/12/15 13:25:14;;;;;;;14.13;3.63;;;;;;;;;;5038210;27;98537;-65
2023/12/15 13:27:40;;;;;;;17.20;3.08;;;;;;;;;;5045486;27;99602;-65
2023/12/15 13:30:09;;;;;;;20.23;3.55;;;;;;;;;;5036469;27;98715;-65
2023/12/15 13:32:36;;;;;;;16.70;3.67;;;;;;;;;;5041368;27;98982;-66
2023/12/15 13:35:02;;;;;;;15.68;3.65;;;;;;;;;;5040810;27;100223;-66
2023/12/15 13:37:30;;;;;;;20.40;4.10;;;;;;;;;;5044292;27;100685;-67
2023/12/15 13:39:56;;;;;;;16.30;4.22;;;;;;;;;;5041068;27;98588;-67
2023/12/15 13:42:23;;;;;;;12.95;3.70;;;;;;;;;;5045358;27;99849;-66
2023/12/15 13:44:50;;;;;;;16.55;3.38;;;;;;;;;;5046149;27;98803;-66
2023/12/15 13:47:16;;;;;;;18.45;3.70;;;;;;;;;;5047037;27;99113;-65
2023/12/15 13:49:42;;;;;;;18.50;5.15;;;;;;;;;;5044053;27;100410;-68
2023/12/15 13:52:10;;;;;;;16.55;4.13;;;;;;;;;;5040660;27;98594;-68
2023/12/15 13:54:36;;;;;;;16.27;3.63;;;;;;;;;;5045984;27;100421;-75
2023/12/15 13:57:03;;;;;;;23.33;3.75;;;;;;;;;;5041948;27;99498;-76
2023/12/15 13:59:32;;;;;;;11.90;3.17;;;;;;;;;;5030540;27;98826;-68
2023/12/15 14:01:59;;;;;;;17.80;3.40;;;;;;;;;;5040694;27;100607;-66
2023/12/15 14:04:25;;;;;;;19.55;5.00;;;;;;;;;;5045248;27;98582;-65
2023/12/15 14:06:53;;;;;;;18.58;4.82;;;;;;;;;;5038612;27;99169;-73
2023/12/15 14:09:19;;;;;;;19.15;4.22;;;;;;;;;;5038609;27;102281;-68
2023/12/15 14:11:46;;;;;;;17.88;4.18;;;;;;;;;;5036270;27;98594;-66
2023/12/15 14:14:12;;;;;;;15.45;3.17;;;;;;;;;;5039977;27;99543;-67
2023/12/15 14:16:40;;;;;;;18.33;3.50;;;;;;;;;;5037653;27;99922;-67